CDT,Max TemperatureF,Mean TemperatureF,Min TemperatureF,Max Dew PointF,MeanDew PointF,Min DewpointF,Max Humidity, Mean Humidity, Min Humidity, Max Sea Level PressureIn, Mean Sea Level PressureIn, Min Sea Level PressureIn, Max VisibilityMiles, Mean VisibilityMiles, Min VisibilityMiles, Max Wind SpeedMPH, Mean Wind SpeedMPH, Max Gust SpeedMPH,PrecipitationIn, CloudCover, Events, WindDirDegrees
2013-4-1,76,62,48,57,52,47,100,68,36,30.14,30.05,29.97,10,6,0,9,3,14,0.00,4,Fog,18
2013-4-2,77,63,48,53,49,45,96,68,40,30.16,30.09,30.02,10,10,8,18,7,22,0.00,2,,31
2013-4-3,59,53,47,46,43,37,100,76,51,30.12,30.07,30.03,10,9,2,23,11,30,0.26,8,Rain,34
2013-4-4,50,48,45,47,45,41,100,93,86,30.10,30.05,30.00,10,6,2,13,7,18,0.04,8,Rain,328
2013-4-5,67,54,41,47,43,37,96,65,34,30.25,30.16,30.09,10,10,6,12,4,15,0.00,5,,340
2013-4-6,77,59,40,50,44,39,100,64,27,30.16,30.10,30.00,10,7,1,16,7,21,0.00,0,,178
2013-4-7,78,66,53,57,54,49,89,66,42,30.11,30.04,29.95,10,10,10,16,9,22,0.00,5,,169
2013-4-8,84,72,60,63,59,58,93,70,46,30.02,29.96,29.87,10,10,8,22,11,30,0.00,2,,168
2013-4-9,87,77,67,68,66,63,93,72,50,29.99,29.93,29.86,10,10,9,25,13,32,0.00,5,Thunderstorm,154
2013-4-10,86,79,71,72,68,66,84,68,51,29.94,29.86,29.76,10,10,9,25,13,35,0.03,5,Rain-Thunderstorm,162
2013-4-11,74,59,43,68,51,42,100,86,72,29.91,29.79,29.73,10,7,0,18,7,24,1.75,7,Fog-Rain-Thunderstorm,312
2013-4-12,72,55,38,53,43,38,100,68,35,30.04,29.94,29.88,10,4,0,10,2,15,0.00,0,Fog,227
2013-4-13,78,61,44,55,48,44,100,68,36,30.09,30.01,29.92,10,7,0,12,3,17,0.00,0,Fog,62
2013-4-14,73,66,58,64,58,51,93,78,63,29.89,29.82,29.71,10,10,5,32,7,40,0.29,5,Rain-Thunderstorm,138
2013-4-15,85,72,59,71,63,58,100,76,51,29.95,29.89,29.81,10,9,1,14,8,18,0.00,3,,151
2013-4-16,84,78,72,72,70,69,93,79,65,30.08,30.02,29.93,10,10,9,18,10,22,0.00,6,,160
2013-4-17,88,79,69,70,69,67,100,75,50,30.10,30.01,29.91,10,9,5,23,11,29,0.00,1,,149
2013-4-18,84,67,50,72,62,49,97,81,65,29.96,29.84,29.67,10,8,2,24,14,36,0.85,7,Rain-Thunderstorm,228
2013-4-19,61,51,40,45,38,35,100,70,39,30.23,30.11,29.99,10,10,10,18,8,30,0.00,3,,315
2013-4-20,70,53,35,46,38,32,100,67,33,30.32,30.24,30.17,10,6,0,12,4,20,0.00,0,Fog,58
2013-4-21,73,57,41,48,43,40,96,64,31,30.30,30.22,30.16,10,10,10,15,4,20,0.00,0,,103
2013-4-22,78,60,42,55,47,41,100,66,32,30.19,30.13,30.02,10,8,1,12,4,16,0.00,0,,103
2013-4-23,82,71,60,66,61,54,97,74,51,30.08,30.02,29.94,10,10,10,18,10,25,0.00,4,,168
2013-4-24,71,59,47,67,53,44,93,80,67,30.32,30.15,29.96,10,8,2,20,11,28,0.81,7,Rain-Thunderstorm,357
2013-4-25,72,59,46,50,43,39,100,67,33,30.41,30.33,30.28,10,10,10,16,8,23,0.00,0,,50
2013-4-26,79,63,46,62,53,43,93,70,47,30.32,30.25,30.17,10,10,10,14,6,22,0.00,2,,145
2013-4-27,82,72,61,67,64,60,93,76,58,30.18,30.10,29.99,10,9,4,16,8,24,T,4,,187
2013-4-28,75,70,64,68,65,62,93,81,69,30.03,29.99,29.94,10,7,1,10,4,14,0.36,6,Rain-Thunderstorm,243
2013-4-29,83,70,56,66,59,51,100,68,36,30.02,29.96,29.90,10,6,0,7,1,9,0.00,1,Fog,122
2013-4-30,81,68,55,67,62,55,100,79,58,29.96,29.92,29.87,10,8,1,16,6,23,0.06,2,Rain-Thunderstorm,134